Time;durP1;ratioP1;P1;durP2;ratioP2;P2;SDS_P1;SDS_P2;PMS_P1;PMS_P2;Temp;Humidity;BMP_temperature;BMP_pressure;BME280_temperature;BME280_humidity;BME280_pressure;Samples;Min_cycle;Max_cycle;Signal;HPM_P1;HPM_P2
2021/08/23 00:00:59;;;;;;;9.40;6.20;;;15.50;99.90;;;;;;5123532;27;20228;-47
2021/08/23 00:03:25;;;;;;;10.13;5.80;;;15.60;99.90;;;;;;5124339;27;20196;-45
2021/08/23 00:05:52;;;;;;;8.93;5.90;;;15.60;99.90;;;;;;5108633;27;20197;-50
2021/08/23 00:08:20;;;;;;;7.87;5.30;;;15.50;99.90;;;;;;5105999;27;20267;-49
2021/08/23 00:10:46;;;;;;;8.33;4.97;;;15.60;99.90;;;;;;5090828;27;20238;-55
2021/08/23 00:13:13;;;;;;;12.50;5.10;;;15.50;99.90;;;;;;5118982;27;20204;-53
2021/08/23 00:15:41;;;;;;;6.07;5.07;;;15.50;99.90;;;;;;5113468;27;20458;-52
2021/08/23 00:18:08;;;;;;;7.00;5.23;;;15.50;99.90;;;;;;5126394;27;20199;-49
2021/08/23 00:20:43;;;;;;;5.50;4.27;;;15.50;99.90;;;;;;5117395;27;20222;-50
2021/08/23 00:23:12;;;;;;;5.20;4.70;;;15.60;99.90;;;;;;5124185;27;20249;-48
2021/08/23 00:25:40;;;;;;;6.43;4.93;;;15.60;99.90;;;;;;5122057;27;20177;-47
2021/08/23 00:28:08;;;;;;;9.83;4.50;;;15.60;99.90;;;;;;5106533;27;20213;-50
2021/08/23 00:30:36;;;;;;;5.70;4.57;;;15.60;99.90;;;;;;5114561;27;20220;-46
2021/08/23 00:33:03;;;;;;;6.10;4.73;;;15.60;99.90;;;;;;5124422;27;20662;-51
2021/08/23 00:35:30;;;;;;;6.20;4.50;;;15.60;99.90;;;;;;5121012;27;20188;-50
2021/08/23 00:37:57;;;;;;;9.00;4.63;;;15.60;99.90;;;;;;5122147;27;20199;-50
2021/08/23 00:40:24;;;;;;;7.47;3.80;;;15.60;99.90;;;;;;5124372;27;20697;-50
2021/08/23 00:42:52;;;;;;;9.37;4.20;;;15.50;99.90;;;;;;5108746;27;20212;-49
2021/08/23 00:45:20;;;;;;;4.37;3.97;;;15.60;99.90;;;;;;5117474;27;20210;-49
2021/08/23 00:47:46;;;;;;;11.80;4.37;;;15.50;99.90;;;;;;5121340;27;20185;-50
2021/08/23 00:50:13;;;;;;;3.93;3.53;;;15.50;99.90;;;;;;5122982;27;20223;-49
2021/08/23 00:52:40;;;;;;;7.70;4.03;;;15.60;99.90;;;;;;5110156;27;20208;-52
2021/08/23 00:55:07;;;;;;;4.87;3.80;;;15.50;99.90;;;;;;5125369;27;20204;-50
2021/08/23 00:57:35;;;;;;;4.93;3.77;;;15.50;99.90;;;;;;5135364;27;20211;-50
2021/08/23 01:00:04;;;;;;;4.60;3.20;;;15.50;99.90;;;;;;5096886;27;20196;-50
2021/08/23 01:02:36;;;;;;;9.20;3.70;;;15.40;99.90;;;;;;5114757;27;20207;-51
2021/08/23 01:05:09;;;;;;;5.77;3.33;;;15.40;99.90;;;;;;5105021;28;20189;-54
2021/08/23 01:07:39;;;;;;;3.77;2.77;;;15.40;99.90;;;;;;5096964;27;20197;-50
2021/08/23 01:10:11;;;;;;;6.50;3.10;;;15.40;99.90;;;;;;5125488;27;20708;-50
2021/08/23 01:12:38;;;;;;;5.30;3.00;;;15.30;99.90;;;;;;5120397;27;20193;-47
2021/08/23 01:15:07;;;;;;;3.00;2.70;;;15.30;99.90;;;;;;5111289;27;20208;-48
2021/08/23 01:17:34;;;;;;;3.33;2.60;;;15.30;99.90;;;;;;5113583;27;20211;-52
2021/08/23 01:20:05;;;;;;;8.97;3.30;;;15.30;99.90;;;;;;5124553;27;20217;-47
2021/08/23 01:22:37;;;;;;;5.50;3.00;;;15.20;99.90;;;;;;5118017;27;20224;-48
2021/08/23 01:25:06;;;;;;;3.87;2.83;;;15.20;99.90;;;;;;5124989;27;20200;-46
2021/08/23 01:27:37;;;;;;;4.50;2.63;;;15.20;99.90;;;;;;5121099;27;20193;-47
2021/08/23 01:30:08;;;;;;;6.33;2.50;;;15.20;99.90;;;;;;5110800;27;20251;-47
2021/08/23 01:32:37;;;;;;;1.93;1.83;;;15.10;99.90;;;;;;5114052;27;20200;-45
2021/08/23 01:35:06;;;;;;;3.87;2.10;;;15.10;99.90;;;;;;5104176;28;20909;-48
2021/08/23 01:37:33;;;;;;;4.07;2.30;;;15.10;99.90;;;;;;5101023;28;20201;-48
2021/08/23 01:40:00;;;;;;;4.60;2.40;;;15.10;99.90;;;;;;5132190;27;20549;-46
2021/08/23 01:42:26;;;;;;;4.93;2.47;;;15.00;99.90;;;;;;5123159;27;20661;-46
2021/08/23 01:44:53;;;;;;;5.00;2.10;;;15.00;99.90;;;;;;5105495;27;20548;-43
2021/08/23 01:47:20;;;;;;;3.50;1.77;;;15.00;99.90;;;;;;5092589;27;20209;-43
2021/08/23 01:49:48;;;;;;;5.03;1.97;;;15.00;99.90;;;;;;5124194;27;20196;-45
2021/08/23 01:52:15;;;;;;;4.13;1.90;;;14.90;99.90;;;;;;5116758;27;20205;-44
2021/08/23 01:54:43;;;;;;;4.87;1.87;;;14.90;99.90;;;;;;5121904;27;20210;-42
2021/08/23 01:57:10;;;;;;;2.57;2.00;;;14.80;99.90;;;;;;5132340;27;20864;-49
2021/08/23 01:59:37;;;;;;;6.93;1.80;;;14.80;99.90;;;;;;5124053;27;20195;-42
2021/08/23 02:02:04;;;;;;;2.17;1.90;;;14.80;99.90;;;;;;5102510;27;20226;-51
2021/08/23 02:04:30;;;;;;;5.03;1.90;;;14.80;99.90;;;;;;5114562;27;20200;-42
2021/08/23 02:06:58;;;;;;;4.23;1.77;;;14.80;99.90;;;;;;5123530;27;20291;-52
2021/08/23 02:09:25;;;;;;;5.93;1.50;;;14.80;99.90;;;;;;5113835;27;20468;-46
2021/08/23 02:11:52;;;;;;;4.60;1.80;;;14.80;99.90;;;;;;5103900;28;20205;-43
2021/08/23 02:14:18;;;;;;;3.93;2.07;;;14.80;99.90;;;;;;5113913;27;20930;-44
2021/08/23 02:16:45;;;;;;;4.67;1.67;;;14.70;99.90;;;;;;5111237;27;20215;-43
2021/08/23 02:19:12;;;;;;;8.03;2.77;;;14.70;99.90;;;;;;5109616;27;20200;-46
2021/08/23 02:21:49;;;;;;;4.53;2.07;;;14.70;99.90;;;;;;5123289;27;20705;-43
2021/08/23 02:24:17;;;;;;;3.33;1.70;;;14.70;99.90;;;;;;5111269;27;20180;-46
2021/08/23 02:26:44;;;;;;;3.47;1.77;;;14.60;99.90;;;;;;5130743;27;20208;-46
2021/08/23 02:29:11;;;;;;;2.50;1.50;;;14.60;99.90;;;;;;5141157;27;20560;-49
2021/08/23 02:31:37;;;;;;;2.37;1.70;;;14.60;99.90;;;;;;5136440;27;20899;-43
2021/08/23 02:34:04;;;;;;;5.00;2.30;;;14.60;99.90;;;;;;5097575;27;20212;-48
2021/08/23 02:36:31;;;;;;;2.97;2.20;;;14.60;99.90;;;;;;5121683;27;20191;-43
2021/08/23 02:38:58;;;;;;;2.00;1.83;;;14.50;99.90;;;;;;5123116;27;20199;-49
2021/08/23 02:41:26;;;;;;;8.53;1.77;;;14.50;99.90;;;;;;5105837;27;20879;-45
2021/08/23 02:43:52;;;;;;;3.20;2.03;;;14.50;99.90;;;;;;5103886;28;20693;-43
2021/08/23 02:46:20;;;;;;;2.83;1.40;;;14.40;99.90;;;;;;5101995;28;20182;-44
2021/08/23 02:48:46;;;;;;;5.33;2.10;;;14.40;99.90;;;;;;5108183;27;20226;-47
2021/08/23 02:51:13;;;;;;;4.30;1.77;;;14.40;99.90;;;;;;5121903;27;20225;-46
2021/08/23 02:53:41;;;;;;;2.67;1.57;;;14.40;99.90;;;;;;5126269;27;20196;-45
2021/08/23 02:56:08;;;;;;;4.07;1.93;;;14.30;99.90;;;;;;5132695;27;20196;-51
2021/08/23 02:58:36;;;;;;;5.07;1.60;;;14.30;99.90;;;;;;5105380;27;20201;-47
2021/08/23 03:01:03;;;;;;;4.73;1.83;;;14.30;99.90;;;;;;5104856;28;20205;-50
2021/08/23 03:03:30;;;;;;;2.47;1.67;;;14.30;99.90;;;;;;5118271;27;20182;-42
2021/08/23 03:05:56;;;;;;;1.80;1.47;;;14.20;99.90;;;;;;5107964;27;20813;-48
2021/08/23 03:08:23;;;;;;;2.50;1.90;;;14.30;99.90;;;;;;5121142;27;20189;-47
2021/08/23 03:10:51;;;;;;;2.30;1.53;;;14.20;99.90;;;;;;5126978;27;20220;-46
2021/08/23 03:13:18;;;;;;;3.37;1.57;;;14.20;99.90;;;;;;5100642;27;20197;-43
2021/08/23 03:15:46;;;;;;;4.73;1.77;;;14.20;99.90;;;;;;5115146;27;20262;-48
2021/08/23 03:18:12;;;;;;;2.33;1.77;;;14.10;99.90;;;;;;5123513;27;20197;-51
2021/08/23 03:20:39;;;;;;;5.97;1.90;;;14.10;99.90;;;;;;5114655;27;20231;-44
2021/08/23 03:23:06;;;;;;;3.77;1.80;;;14.10;99.90;;;;;;5120979;27;20212;-49
2021/08/23 03:25:32;;;;;;;4.03;1.83;;;14.10;99.90;;;;;;5129960;27;20200;-44
2021/08/23 03:27:59;;;;;;;2.97;2.20;;;14.10;99.90;;;;;;5115178;27;20682;-49
2021/08/23 03:30:25;;;;;;;5.10;2.23;;;14.00;99.90;;;;;;5103483;28;20220;-45
2021/08/23 03:32:53;;;;;;;4.40;2.23;;;14.00;99.90;;;;;;5106640;27;20205;-45
2021/08/23 03:35:21;;;;;;;7.10;2.60;;;14.00;99.90;;;;;;5100859;27;20909;-42
2021/08/23 03:37:48;;;;;;;4.33;2.20;;;14.00;99.90;;;;;;5126198;27;20207;-46
2021/08/23 03:40:15;;;;;;;4.90;2.57;;;14.00;99.90;;;;;;5122494;27;20236;-43
2021/08/23 03:42:42;;;;;;;4.53;2.43;;;14.00;99.90;;;;;;5126360;27;20203;-48
2021/08/23 03:45:09;;;;;;;5.33;2.90;;;13.90;99.90;;;;;;5117232;27;20544;-51
2021/08/23 03:47:35;;;;;;;5.43;3.43;;;13.90;99.90;;;;;;5125134;27;20197;-43
2021/08/23 03:50:04;;;;;;;5.23;3.40;;;13.90;99.90;;;;;;5109467;27;20201;-49
2021/08/23 03:52:30;;;;;;;5.07;3.03;;;13.90;99.90;;;;;;5123930;27;20181;-43
2021/08/23 03:54:58;;;;;;;5.00;3.70;;;13.90;99.90;;;;;;5126660;27;20234;-51
2021/08/23 03:57:24;;;;;;;5.33;3.60;;;13.90;99.90;;;;;;5127441;27;20187;-44
2021/08/23 03:59:51;;;;;;;9.20;4.10;;;13.80;99.90;;;;;;5120830;27;20200;-44
2021/08/23 04:02:18;;;;;;;6.00;4.03;;;13.80;99.90;;;;;;5121406;27;21043;-43
2021/08/23 04:04:44;;;;;;;5.83;4.30;;;13.80;99.90;;;;;;5125557;27;20196;-45
2021/08/23 04:07:12;;;;;;;6.83;4.63;;;13.80;99.90;;;;;;5110180;27;20592;-52
2021/08/23 04:09:39;;;;;;;10.03;4.63;;;13.80;99.90;;;;;;5125134;27;20193;-45
2021/08/23 04:12:06;;;;;;;7.87;4.70;;;13.80;99.90;;;;;;5123958;27;20239;-52
2021/08/23 04:14:33;;;;;;;5.53;5.00;;;13.80;99.90;;;;;;5110826;27;20181;-44
2021/08/23 04:16:59;;;;;;;8.27;4.83;;;13.80;99.90;;;;;;5100922;27;20599;-47
2021/08/23 04:19:26;;;;;;;6.50;4.83;;;13.80;99.90;;;;;;5102240;28;20185;-42
2021/08/23 04:21:53;;;;;;;9.83;4.73;;;13.80;99.90;;;;;;5100831;27;20704;-45
2021/08/23 04:24:21;;;;;;;7.53;5.10;;;13.80;99.90;;;;;;5106433;27;20189;-42
2021/08/23 04:26:47;;;;;;;8.70;5.30;;;13.70;99.90;;;;;;5134708;27;20193;-46
2021/08/23 04:29:15;;;;;;;7.47;5.40;;;13.70;99.90;;;;;;5121127;27;20193;-49
2021/08/23 04:31:42;;;;;;;12.57;5.17;;;13.70;99.90;;;;;;5107722;27;20221;-43
2021/08/23 04:34:09;;;;;;;7.20;5.20;;;13.70;99.90;;;;;;5102332;28;20276;-47
2021/08/23 04:36:37;;;;;;;8.30;5.17;;;13.70;99.90;;;;;;5094514;27;20204;-43
2021/08/23 04:39:04;;;;;;;9.13;7.40;;;13.70;99.90;;;;;;5115073;27;20615;-48
2021/08/23 04:41:36;;;;;;;13.57;5.27;;;13.70;99.90;;;;;;5123922;27;20204;-48
2021/08/23 04:44:04;;;;;;;6.53;5.23;;;13.70;99.90;;;;;;5123706;27;20192;-47
2021/08/23 04:46:30;;;;;;;10.70;4.90;;;13.70;99.90;;;;;;5117905;27;20192;-42
2021/08/23 04:48:57;;;;;;;7.87;4.87;;;13.70;99.90;;;;;;5122084;27;20519;-47
2021/08/23 04:51:23;;;;;;;8.33;4.70;;;13.60;99.90;;;;;;5105367;27;20232;-46
2021/08/23 04:53:50;;;;;;;7.97;5.50;;;13.60;99.90;;;;;;5126793;27;20200;-45
2021/08/23 04:56:17;;;;;;;11.50;6.77;;;13.70;99.90;;;;;;5120722;27;20827;-45
2021/08/23 04:58:45;;;;;;;9.27;4.90;;;13.70;99.90;;;;;;5124851;27;20196;-47
2021/08/23 05:01:12;;;;;;;7.10;4.93;;;13.70;99.90;;;;;;5107675;27;20209;-49
2021/08/23 05:03:40;;;;;;;5.27;4.13;;;13.70;99.90;;;;;;5104793;28;20555;-45
2021/08/23 05:06:07;;;;;;;8.43;4.50;;;13.70;99.90;;;;;;5112514;27;20196;-50
2021/08/23 05:08:33;;;;;;;5.53;4.30;;;13.70;99.90;;;;;;5111484;27;20204;-42
2021/08/23 05:11:01;;;;;;;8.93;4.60;;;13.70;99.90;;;;;;5121889;27;20216;-48
2021/08/23 05:13:27;;;;;;;4.17;3.63;;;13.70;99.90;;;;;;5106809;27;20213;-47
2021/08/23 05:15:56;;;;;;;6.27;4.10;;;13.70;99.90;;;;;;5104213;27;20204;-49
2021/08/23 05:18:23;;;;;;;4.97;4.13;;;13.70;99.90;;;;;;5109799;27;20218;-45
2021/08/23 05:20:50;;;;;;;3.93;3.53;;;13.70;99.90;;;;;;5103775;27;20221;-42
2021/08/23 05:23:16;;;;;;;9.60;4.47;;;13.80;99.90;;;;;;5099595;27;20577;-44
2021/08/23 05:25:43;;;;;;;4.07;3.50;;;13.80;99.90;;;;;;5112430;27;20296;-45
2021/08/23 05:28:09;;;;;;;4.23;3.70;;;13.80;99.90;;;;;;5118446;27;20209;-40
2021/08/23 05:30:36;;;;;;;4.00;3.60;;;13.80;99.90;;;;;;5111320;27;20228;-50
2021/08/23 05:33:04;;;;;;;6.37;3.60;;;13.80;99.90;;;;;;5111639;27;20196;-44
2021/08/23 05:35:31;;;;;;;5.47;3.30;;;13.90;99.90;;;;;;5111127;27;20201;-47
2021/08/23 05:37:58;;;;;;;4.00;3.60;;;13.90;99.90;;;;;;5101889;27;20196;-43
2021/08/23 05:40:26;;;;;;;4.90;3.63;;;13.90;99.90;;;;;;5097342;27;20225;-50
2021/08/23 05:42:53;;;;;;;4.13;3.70;;;13.90;99.90;;;;;;5114952;27;20339;-46
2021/08/23 05:45:20;;;;;;;5.20;3.43;;;14.00;99.90;;;;;;5124612;27;20185;-42
2021/08/23 05:47:47;;;;;;;4.30;3.47;;;14.00;99.90;;;;;;5098884;27;20188;-42
2021/08/23 05:50:15;;;;;;;7.43;3.60;;;14.00;99.90;;;;;;5105853;27;20197;-45
2021/08/23 05:52:41;;;;;;;4.40;3.60;;;14.10;99.90;;;;;;5115175;27;20292;-49
2021/08/23 05:55:09;;;;;;;8.10;3.70;;;14.10;99.90;;;;;;5100766;27;20204;-41
2021/08/23 05:57:36;;;;;;;7.40;3.23;;;14.20;99.90;;;;;;5118160;27;20211;-48
2021/08/23 06:00:03;;;;;;;5.17;3.50;;;14.20;99.90;;;;;;5113536;28;20203;-41
2021/08/23 06:02:39;;;;;;;4.30;3.30;;;14.30;99.90;;;;;;5113584;27;20212;-51
2021/08/23 06:05:06;;;;;;;9.00;3.47;;;14.30;99.90;;;;;;5112898;27;20208;-43
2021/08/23 06:07:34;;;;;;;5.00;3.20;;;14.40;99.90;;;;;;5122039;27;20208;-50
2021/08/23 06:10:01;;;;;;;6.80;3.13;;;14.40;99.90;;;;;;5101548;27;20300;-42
2021/08/23 06:12:27;;;;;;;7.57;3.30;;;14.50;99.90;;;;;;5115127;27;20202;-54
2021/08/23 06:14:54;;;;;;;7.53;3.17;;;14.50;99.90;;;;;;5117265;27;20265;-43
2021/08/23 06:17:21;;;;;;;8.30;3.70;;;14.60;99.90;;;;;;5105393;27;20609;-49
2021/08/23 06:19:48;;;;;;;6.97;2.77;;;14.70;99.90;;;;;;5098009;27;20207;-44
2021/08/23 06:22:14;;;;;;;4.97;2.80;;;14.70;99.90;;;;;;5112837;28;20209;-46
2021/08/23 06:24:42;;;;;;;7.10;3.10;;;14.80;99.90;;;;;;5108797;27;20786;-43
2021/08/23 06:27:09;;;;;;;3.80;2.40;;;14.80;99.90;;;;;;5104752;27;20300;-42
2021/08/23 06:29:36;;;;;;;4.07;2.87;;;14.90;99.90;;;;;;5114145;27;20200;-49
2021/08/23 06:32:03;;;;;;;8.13;2.70;;;14.90;99.90;;;;;;5107253;27;20679;-44
2021/08/23 06:34:30;;;;;;;4.87;2.87;;;15.00;99.90;;;;;;5103111;27;20205;-51
2021/08/23 06:36:56;;;;;;;8.93;2.53;;;15.10;99.90;;;;;;5114194;27;20274;-47
2021/08/23 06:39:23;;;;;;;5.20;2.90;;;15.10;99.90;;;;;;5125193;27;20196;-49
2021/08/23 06:41:52;;;;;;;6.13;2.73;;;15.20;99.90;;;;;;5105812;27;20235;-45
2021/08/23 06:44:20;;;;;;;4.50;2.47;;;15.20;99.90;;;;;;5127773;27;20196;-42
2021/08/23 06:46:46;;;;;;;5.60;2.50;;;15.30;99.90;;;;;;5111541;27;20178;-42
2021/08/23 06:49:13;;;;;;;4.17;2.20;;;15.30;99.90;;;;;;5102837;27;20201;-49
2021/08/23 06:51:40;;;;;;;8.03;2.43;;;15.40;99.90;;;;;;5119718;27;20833;-50
2021/08/23 06:54:08;;;;;;;5.63;2.20;;;15.50;99.90;;;;;;5107589;28;20563;-43
2021/08/23 06:56:34;;;;;;;6.97;2.60;;;15.50;99.90;;;;;;5096915;27;20201;-52
2021/08/23 06:59:02;;;;;;;4.73;2.33;;;15.60;99.90;;;;;;5123702;27;20205;-44
2021/08/23 07:01:29;;;;;;;4.50;2.53;;;15.70;99.90;;;;;;5122232;27;20209;-50
2021/08/23 07:03:56;;;;;;;3.07;2.00;;;15.80;99.90;;;;;;5102063;27;20205;-42
2021/08/23 07:06:22;;;;;;;4.13;2.10;;;15.80;99.90;;;;;;5116490;27;20198;-50
2021/08/23 07:08:49;;;;;;;5.13;1.83;;;15.90;99.90;;;;;;5111330;27;20966;-42
2021/08/23 07:11:16;;;;;;;4.17;2.20;;;16.00;99.90;;;;;;5123155;27;20217;-45
2021/08/23 07:13:43;;;;;;;4.23;1.97;;;16.00;99.90;;;;;;5102253;27;20196;-44
2021/08/23 07:16:11;;;;;;;5.07;2.17;;;16.10;99.90;;;;;;5125260;27;20707;-47
2021/08/23 07:18:38;;;;;;;4.77;2.17;;;16.20;99.90;;;;;;5103221;27;20204;-48
2021/08/23 07:21:05;;;;;;;6.33;2.00;;;16.30;99.90;;;;;;5108504;27;20305;-41
2021/08/23 07:23:32;;;;;;;4.53;1.93;;;16.40;99.90;;;;;;5120308;27;20201;-52
2021/08/23 07:25:59;;;;;;;4.80;1.87;;;16.40;99.90;;;;;;5109494;27;21111;-42
2021/08/23 07:28:26;;;;;;;2.67;1.80;;;16.50;99.90;;;;;;5101004;27;20864;-52
2021/08/23 07:30:53;;;;;;;3.37;1.67;;;16.60;99.90;;;;;;5110200;27;20220;-42
2021/08/23 07:33:21;;;;;;;5.07;1.83;;;16.60;99.90;;;;;;5119440;27;21084;-48
2021/08/23 07:35:48;;;;;;;3.17;1.83;;;16.70;99.90;;;;;;5111292;27;20189;-42
2021/08/23 07:38:15;;;;;;;2.93;1.47;;;16.80;99.90;;;;;;5116331;27;20216;-42
2021/08/23 07:40:42;;;;;;;4.97;1.97;;;16.80;99.90;;;;;;5108428;27;20216;-42
2021/08/23 07:43:08;;;;;;;2.33;1.60;;;16.80;99.90;;;;;;5109051;27;20207;-46
2021/08/23 07:45:35;;;;;;;2.13;1.30;;;17.00;99.90;;;;;;5108511;27;20689;-50
2021/08/23 07:48:03;;;;;;;3.60;1.63;;;17.00;99.90;;;;;;5114315;27;20209;-43
2021/08/23 07:50:31;;;;;;;3.20;1.60;;;17.10;99.90;;;;;;5110600;27;20661;-49
2021/08/23 07:52:57;;;;;;;1.53;1.30;;;17.10;99.90;;;;;;5124540;27;20220;-44
2021/08/23 07:55:24;;;;;;;3.03;1.37;;;17.20;99.90;;;;;;5109943;27;20208;-49
2021/08/23 07:57:51;;;;;;;2.87;1.20;;;17.20;99.90;;;;;;5103640;27;20222;-43
2021/08/23 08:00:19;;;;;;;1.77;1.10;;;17.30;99.90;;;;;;5100595;27;20231;-47
2021/08/23 08:02:46;;;;;;;3.47;1.67;;;17.40;99.90;;;;;;5115304;27;20181;-41
2021/08/23 08:05:13;;;;;;;2.33;1.20;;;17.50;99.90;;;;;;5109214;27;20201;-46
2021/08/23 08:07:41;;;;;;;2.03;1.10;;;17.50;99.90;;;;;;5111702;27;20193;-45
2021/08/23 08:10:09;;;;;;;2.00;1.23;;;17.50;99.90;;;;;;5120041;27;20280;-41
2021/08/23 08:12:37;;;;;;;2.17;1.47;;;17.50;99.90;;;;;;5098938;27;20689;-51
2021/08/23 08:15:05;;;;;;;4.30;1.43;;;17.50;99.90;;;;;;5098388;27;20208;-42
2021/08/23 08:17:31;;;;;;;3.93;1.20;;;17.60;99.90;;;;;;5110072;27;20209;-50
2021/08/23 08:19:58;;;;;;;5.17;1.60;;;17.70;99.90;;;;;;5116669;27;20193;-45
2021/08/23 08:22:25;;;;;;;5.43;1.80;;;17.80;99.90;;;;;;5112833;27;20238;-50
2021/08/23 08:24:53;;;;;;;2.90;1.23;;;18.00;99.90;;;;;;5116962;27;20188;-42
2021/08/23 08:27:19;;;;;;;1.83;1.27;;;18.10;99.90;;;;;;5109396;27;20561;-52
2021/08/23 08:29:46;;;;;;;3.80;1.30;;;18.20;99.90;;;;;;5096401;27;20208;-46
2021/08/23 08:32:12;;;;;;;2.20;1.53;;;18.20;99.90;;;;;;5118833;27;20216;-43
2021/08/23 08:34:39;;;;;;;3.23;1.10;;;18.40;99.90;;;;;;5116444;27;20182;-46
2021/08/23 08:37:06;;;;;;;4.70;1.47;;;18.40;99.90;;;;;;5111931;27;21630;-46
2021/08/23 08:39:32;;;;;;;2.67;1.23;;;18.50;99.90;;;;;;5111320;27;20207;-42
2021/08/23 08:42:00;;;;;;;3.00;1.83;;;18.60;99.90;;;;;;5116022;27;20221;-43
2021/08/23 08:44:28;;;;;;;2.97;1.20;;;18.60;99.90;;;;;;5104760;27;20215;-42
2021/08/23 08:46:57;;;;;;;1.13;0.73;;;18.70;99.90;;;;;;5108685;27;20205;-45
2021/08/23 08:49:24;;;;;;;1.40;1.30;;;18.70;99.90;;;;;;5122233;27;20216;-43
2021/08/23 08:51:51;;;;;;;2.37;1.00;;;18.60;99.90;;;;;;5125690;27;20212;-45
2021/08/23 08:54:18;;;;;;;1.97;1.10;;;18.50;99.90;;;;;;5119251;27;20201;-43
2021/08/23 08:56:44;;;;;;;3.00;0.90;;;18.50;99.90;;;;;;5108149;27;20193;-44
2021/08/23 08:59:13;;;;;;;1.50;1.40;;;18.50;99.90;;;;;;5127266;27;20204;-49
2021/08/23 09:01:41;;;;;;;5.53;1.37;;;18.50;99.90;;;;;;5089469;27;20215;-46
2021/08/23 09:04:07;;;;;;;4.80;2.17;;;18.60;99.90;;;;;;5113434;27;20210;-45
2021/08/23 09:06:39;;;;;;;2.47;1.33;;;18.70;99.90;;;;;;5120681;27;20507;-42
2021/08/23 09:09:10;;;;;;;3.40;1.17;;;18.80;99.90;;;;;;5113839;27;20665;-42
2021/08/23 09:11:38;;;;;;;1.60;0.80;;;18.80;99.90;;;;;;5122990;27;20204;-48
2021/08/23 09:14:07;;;;;;;4.10;1.20;;;19.00;99.90;;;;;;5115891;27;20208;-48
2021/08/23 09:16:38;;;;;;;2.90;1.23;;;19.00;99.90;;;;;;5098881;27;20198;-41
2021/08/23 09:19:07;;;;;;;3.73;1.37;;;19.00;99.90;;;;;;5111955;27;20208;-50
2021/08/23 09:21:38;;;;;;;2.93;1.57;;;19.00;99.90;;;;;;5111286;27;20221;-44
2021/08/23 09:24:08;;;;;;;3.50;1.40;;;19.00;99.90;;;;;;5107694;27;20221;-44
2021/08/23 09:26:35;;;;;;;4.63;1.30;;;19.00;99.90;;;;;;5099795;27;20205;-43
2021/08/23 09:29:04;;;;;;;1.63;1.13;;;19.00;99.90;;;;;;5105380;27;20235;-48
2021/08/23 09:31:33;;;;;;;1.87;1.17;;;19.10;99.90;;;;;;5107101;27;20209;-42
2021/08/23 09:34:03;;;;;;;2.70;1.47;;;19.10;99.90;;;;;;5094711;27;20217;-44
2021/08/23 09:36:31;;;;;;;5.20;1.17;;;19.10;99.90;;;;;;5103404;27;20216;-42
2021/08/23 09:39:00;;;;;;;2.40;1.47;;;19.10;99.90;;;;;;5107931;27;20308;-43
2021/08/23 09:41:27;;;;;;;3.07;1.17;;;19.20;99.90;;;;;;5107260;27;20221;-47
2021/08/23 09:44:05;;;;;;;2.33;1.63;;;19.20;99.90;;;;;;5112409;27;20213;-45
2021/08/23 09:46:33;;;;;;;2.30;1.10;;;19.20;99.90;;;;;;5102663;27;20215;-45
2021/08/23 09:49:03;;;;;;;1.87;1.10;;;19.20;99.90;;;;;;5104675;27;20200;-47
2021/08/23 09:51:31;;;;;;;2.10;1.10;;;19.30;99.90;;;;;;5108698;27;20233;-41
2021/08/23 09:54:20;;;;;;;2.60;1.30;;;19.40;99.90;;;;;;5114056;27;20223;-46
2021/08/23 09:56:48;;;;;;;2.03;1.23;;;19.40;99.90;;;;;;5106258;27;20288;-45
2021/08/23 09:59:16;;;;;;;0.97;0.93;;;19.40;99.90;;;;;;5109169;27;20204;-42
2021/08/23 10:01:44;;;;;;;1.33;0.97;;;19.50;99.90;;;;;;5109607;27;20587;-50
2021/08/23 10:04:13;;;;;;;1.20;1.07;;;19.60;99.90;;;;;;5097391;27;20200;-43
2021/08/23 10:06:42;;;;;;;1.20;1.10;;;19.70;99.90;;;;;;5108823;27;20200;-45
2021/08/23 10:09:10;;;;;;;1.47;1.00;;;19.90;99.90;;;;;;5116021;27;20192;-44
2021/08/23 10:11:38;;;;;;;4.83;1.70;;;19.90;99.90;;;;;;5103621;27;20236;-45
2021/08/23 10:14:06;;;;;;;3.07;1.50;;;19.90;99.90;;;;;;5110326;27;20232;-43
2021/08/23 10:16:35;;;;;;;1.10;0.93;;;20.00;99.90;;;;;;5115463;27;20196;-47
2021/08/23 10:19:02;;;;;;;2.30;0.90;;;20.00;99.90;;;;;;5110315;27;20200;-43
2021/08/23 10:21:31;;;;;;;1.97;1.20;;;20.20;99.90;;;;;;5089316;27;20229;-45
2021/08/23 10:24:00;;;;;;;3.80;1.30;;;20.30;99.90;;;;;;5113263;27;20204;-44
2021/08/23 10:26:27;;;;;;;2.57;1.03;;;20.30;99.90;;;;;;5100231;27;21311;-46
2021/08/23 10:28:53;;;;;;;2.57;0.97;;;20.40;99.90;;;;;;5113971;27;20674;-45
2021/08/23 10:31:22;;;;;;;3.40;1.17;;;20.40;99.90;;;;;;5110174;27;20221;-46
2021/08/23 10:33:49;;;;;;;1.67;0.90;;;20.40;99.90;;;;;;5112202;27;20216;-43
2021/08/23 10:36:18;;;;;;;2.67;1.30;;;20.50;99.90;;;;;;5097801;27;20243;-42
2021/08/23 10:38:48;;;;;;;4.60;1.10;;;20.50;99.90;;;;;;5112486;27;20207;-43
2021/08/23 10:41:16;;;;;;;1.97;1.13;;;20.60;99.90;;;;;;5112285;27;20228;-42
2021/08/23 10:43:46;;;;;;;4.03;0.97;;;20.70;99.90;;;;;;5108121;27;20208;-45
2021/08/23 10:46:27;;;;;;;2.90;1.20;;;20.80;99.90;;;;;;5111423;27;20281;-43
2021/08/23 10:48:56;;;;;;;2.60;0.90;;;20.80;99.90;;;;;;5106372;27;20204;-44
2021/08/23 10:51:31;;;;;;;2.03;1.03;;;20.80;99.90;;;;;;5099036;27;20478;-46
2021/08/23 10:54:00;;;;;;;1.10;1.00;;;20.90;99.90;;;;;;5115980;27;20216;-44
2021/08/23 10:56:38;;;;;;;1.77;1.20;;;20.90;99.90;;;;;;5111782;27;20207;-43
2021/08/23 10:59:15;;;;;;;1.87;0.97;;;20.80;99.90;;;;;;5117031;27;20219;-45
2021/08/23 11:01:53;;;;;;;2.33;0.93;;;20.70;99.90;;;;;;5106442;27;20239;-44
2021/08/23 11:04:33;;;;;;;1.03;0.90;;;20.60;99.90;;;;;;5111007;27;20348;-45
2021/08/23 11:07:00;;;;;;;1.77;0.83;;;20.50;99.90;;;;;;5103197;27;20197;-49
2021/08/23 11:09:36;;;;;;;1.07;0.63;;;20.60;99.90;;;;;;5102330;27;20219;-41
2021/08/23 11:12:09;;;;;;;1.13;0.90;;;20.70;99.90;;;;;;5119503;27;20219;-50
2021/08/23 11:14:44;;;;;;;1.93;1.10;;;20.80;99.90;;;;;;5126989;27;20320;-42
2021/08/23 11:17:10;;;;;;;1.47;1.07;;;20.80;99.90;;;;;;5109425;27;20200;-51
2021/08/23 11:19:39;;;;;;;0.97;0.90;;;20.90;99.90;;;;;;5122950;27;20200;-44
2021/08/23 11:22:05;;;;;;;2.47;0.70;;;21.00;99.90;;;;;;5101781;27;20228;-47
2021/08/23 11:24:36;;;;;;;1.83;1.00;;;21.10;99.90;;;;;;5115054;27;20200;-42
2021/08/23 11:27:05;;;;;;;2.47;1.10;;;21.10;99.90;;;;;;5113755;27;20193;-42
2021/08/23 11:29:34;;;;;;;2.83;1.00;;;20.90;99.90;;;;;;5106570;27;20669;-43
2021/08/23 11:32:01;;;;;;;0.80;0.60;;;20.80;99.90;;;;;;5109182;27;20212;-42
2021/08/23 11:34:29;;;;;;;1.50;0.70;;;20.70;99.90;;;;;;5108025;27;20221;-44
2021/08/23 11:37:01;;;;;;;2.07;0.93;;;20.80;99.90;;;;;;5093532;27;20203;-43
2021/08/23 11:39:28;;;;;;;1.50;0.80;;;20.80;99.40;;;;;;5111159;27;20661;-45
2021/08/23 11:42:04;;;;;;;1.57;0.80;;;20.80;99.90;;;;;;5113557;27;21128;-42
2021/08/23 11:44:31;;;;;;;1.40;1.00;;;20.70;99.90;;;;;;5111638;27;20621;-43
2021/08/23 11:46:59;;;;;;;2.80;0.90;;;20.70;99.90;;;;;;5106165;27;20197;-42
2021/08/23 11:49:30;;;;;;;2.90;1.30;;;20.80;99.90;;;;;;5104952;27;20204;-42
2021/08/23 11:51:57;;;;;;;2.57;0.93;;;21.00;99.90;;;;;;5094564;27;20217;-44
2021/08/23 11:54:24;;;;;;;1.47;0.50;;;21.00;99.90;;;;;;5111688;27;20212;-46
2021/08/23 11:56:50;;;;;;;1.10;0.83;;;21.20;99.90;;;;;;5117415;27;20209;-47
2021/08/23 11:59:18;;;;;;;1.07;0.80;;;21.30;99.90;;;;;;5116929;27;20209;-41
2021/08/23 12:01:47;;;;;;;1.43;0.70;;;21.30;99.90;;;;;;5110129;27;20205;-45
2021/08/23 12:04:14;;;;;;;1.60;0.80;;;21.30;99.00;;;;;;5103949;27;20209;-48
2021/08/23 12:06:40;;;;;;;3.05;0.88;;;21.40;99.80;;;;;;5138907;27;20203;-44
2021/08/23 12:09:07;;;;;;;1.00;0.88;;;21.30;99.30;;;;;;5098255;27;20205;-46
2021/08/23 12:11:45;;;;;;;3.70;0.90;;;21.40;99.00;;;;;;5114563;27;20212;-42
2021/08/23 12:14:21;;;;;;;1.00;0.80;;;21.50;99.90;;;;;;5106234;27;20216;-46
2021/08/23 12:16:48;;;;;;;2.07;1.17;;;21.50;99.30;;;;;;5112496;27;20197;-49
2021/08/23 12:19:16;;;;;;;1.27;0.70;;;21.60;99.90;;;;;;5101511;27;20677;-47
2021/08/23 12:21:46;;;;;;;1.05;0.60;;;21.50;99.10;;;;;;5104282;27;20237;-42
2021/08/23 12:24:22;;;;;;;1.95;0.93;;;21.60;99.20;;;;;;5095735;27;20658;-46
2021/08/23 12:26:52;;;;;;;0.88;0.80;;;21.50;98.20;;;;;;5112026;27;20320;-44
2021/08/23 12:29:23;;;;;;;1.65;0.93;;;21.50;98.70;;;;;;5103744;27;20201;-42
2021/08/23 12:31:52;;;;;;;1.08;0.60;;;21.50;97.60;;;;;;5112548;27;20224;-42
2021/08/23 12:34:21;;;;;;;1.15;0.68;;;21.60;97.20;;;;;;5105484;27;20274;-43
2021/08/23 12:36:48;;;;;;;1.98;1.20;;;21.60;97.20;;;;;;5114806;27;20201;-42
2021/08/23 12:39:16;;;;;;;1.63;0.80;;;21.70;96.80;;;;;;5102290;27;20204;-47
2021/08/23 12:41:44;;;;;;;2.35;0.95;;;21.80;96.70;;;;;;5118343;27;20216;-45
2021/08/23 12:44:11;;;;;;;1.85;1.38;;;21.90;98.00;;;;;;5107745;27;20195;-48
2021/08/23 12:46:39;;;;;;;1.33;0.82;;;21.90;98.70;;;;;;5117895;27;20199;-48
2021/08/23 12:49:06;;;;;;;1.30;0.60;;;21.90;97.00;;;;;;5114822;27;20207;-51